sensor_id;sensor_type;location;lat;lon;timestamp;P1;durP1;ratioP1;P2;durP2;ratioP2
35689;SDS011;26977;44.830;-0.674;2023-02-15T00:00:12;38.78;;;22.73;;
35689;SDS011;26977;44.830;-0.674;2023-02-15T00:02:38;37.97;;;23.77;;
35689;SDS011;26977;44.830;-0.674;2023-02-15T00:05:04;36.70;;;22.67;;
35689;SDS011;26977;44.830;-0.674;2023-02-15T00:07:30;34.88;;;23.92;;
35689;SDS011;26977;44.830;-0.674;2023-02-15T00:09:57;36.15;;;21.98;;
35689;SDS011;26977;44.830;-0.674;2023-02-15T00:12:23;32.88;;;22.73;;
35689;SDS011;26977;44.830;-0.674;2023-02-15T00:14:49;37.70;;;23.88;;
35689;SDS011;26977;44.830;-0.674;2023-02-15T00:17:15;41.10;;;23.10;;
35689;SDS011;26977;44.830;-0.674;2023-02-15T00:19:41;37.78;;;22.85;;
35689;SDS011;26977;44.830;-0.674;2023-02-15T00:22:07;37.78;;;21.35;;
35689;SDS011;26977;44.830;-0.674;2023-02-15T00:24:33;33.97;;;21.63;;
35689;SDS011;26977;44.830;-0.674;2023-02-15T00:26:59;35.50;;;21.33;;
35689;SDS011;26977;44.830;-0.674;2023-02-15T00:29:25;33.22;;;20.38;;
35689;SDS011;26977;44.830;-0.674;2023-02-15T00:31:53;36.33;;;20.42;;
35689;SDS011;26977;44.830;-0.674;2023-02-15T00:34:29;32.03;;;20.17;;
35689;SDS011;26977;44.830;-0.674;2023-02-15T00:36:56;33.65;;;20.55;;
35689;SDS011;26977;44.830;-0.674;2023-02-15T00:39:22;28.95;;;19.17;;
35689;SDS011;26977;44.830;-0.674;2023-02-15T00:41:48;34.53;;;20.75;;
35689;SDS011;26977;44.830;-0.674;2023-02-15T00:44:15;35.30;;;19.27;;
35689;SDS011;26977;44.830;-0.674;2023-02-15T00:46:40;31.67;;;20.58;;
35689;SDS011;26977;44.830;-0.674;2023-02-15T00:49:17;32.85;;;20.48;;
35689;SDS011;26977;44.830;-0.674;2023-02-15T00:51:54;34.28;;;20.55;;
35689;SDS011;26977;44.830;-0.674;2023-02-15T00:54:20;28.48;;;19.15;;
35689;SDS011;26977;44.830;-0.674;2023-02-15T00:56:46;29.92;;;19.35;;
35689;SDS011;26977;44.830;-0.674;2023-02-15T00:59:12;35.95;;;19.95;;
35689;SDS011;26977;44.830;-0.674;2023-02-15T01:01:38;31.23;;;19.85;;
35689;SDS011;26977;44.830;-0.674;2023-02-15T01:04:08;26.45;;;19.05;;
35689;SDS011;26977;44.830;-0.674;2023-02-15T01:06:34;30.48;;;19.55;;
35689;SDS011;26977;44.830;-0.674;2023-02-15T01:08:59;30.20;;;19.40;;
35689;SDS011;26977;44.830;-0.674;2023-02-15T01:11:26;30.70;;;18.52;;
35689;SDS011;26977;44.830;-0.674;2023-02-15T01:13:52;34.10;;;20.08;;
35689;SDS011;26977;44.830;-0.674;2023-02-15T01:16:20;32.85;;;19.88;;
35689;SDS011;26977;44.830;-0.674;2023-02-15T01:18:47;30.38;;;18.67;;
35689;SDS011;26977;44.830;-0.674;2023-02-15T01:21:14;27.80;;;17.83;;
35689;SDS011;26977;44.830;-0.674;2023-02-15T01:23:42;30.45;;;18.95;;
35689;SDS011;26977;44.830;-0.674;2023-02-15T01:26:08;31.30;;;18.35;;
35689;SDS011;26977;44.830;-0.674;2023-02-15T01:28:35;29.40;;;18.65;;
35689;SDS011;26977;44.830;-0.674;2023-02-15T01:31:07;28.00;;;18.05;;
35689;SDS011;26977;44.830;-0.674;2023-02-15T01:33:35;27.20;;;18.17;;
35689;SDS011;26977;44.830;-0.674;2023-02-15T01:36:02;27.15;;;18.13;;
35689;SDS011;26977;44.830;-0.674;2023-02-15T01:38:34;34.40;;;18.50;;
35689;SDS011;26977;44.830;-0.674;2023-02-15T01:41:00;32.70;;;18.38;;
35689;SDS011;26977;44.830;-0.674;2023-02-15T01:43:58;31.27;;;17.33;;
35689;SDS011;26977;44.830;-0.674;2023-02-15T01:49:14;23.38;;;17.17;;
35689;SDS011;26977;44.830;-0.674;2023-02-15T01:51:52;27.88;;;17.80;;
35689;SDS011;26977;44.830;-0.674;2023-02-15T01:54:20;29.67;;;17.20;;
35689;SDS011;26977;44.830;-0.674;2023-02-15T01:56:54;26.80;;;17.60;;
35689;SDS011;26977;44.830;-0.674;2023-02-15T01:59:23;31.48;;;18.10;;
35689;SDS011;26977;44.830;-0.674;2023-02-15T02:01:51;27.63;;;17.25;;
35689;SDS011;26977;44.830;-0.674;2023-02-15T02:06:51;28.02;;;17.23;;
35689;SDS011;26977;44.830;-0.674;2023-02-15T02:09:20;28.98;;;17.15;;
35689;SDS011;26977;44.830;-0.674;2023-02-15T02:11:46;26.13;;;17.05;;
35689;SDS011;26977;44.830;-0.674;2023-02-15T02:14:13;26.13;;;17.38;;
35689;SDS011;26977;44.830;-0.674;2023-02-15T02:19:28;30.63;;;17.33;;
35689;SDS011;26977;44.830;-0.674;2023-02-15T02:38:28;29.80;;;18.15;;
35689;SDS011;26977;44.830;-0.674;2023-02-15T02:46:53;26.52;;;16.83;;
35689;SDS011;26977;44.830;-0.674;2023-02-15T02:49:41;26.05;;;17.58;;
35689;SDS011;26977;44.830;-0.674;2023-02-15T02:55:30;29.17;;;18.85;;
35689;SDS011;26977;44.830;-0.674;2023-02-15T02:58:07;30.20;;;17.38;;
35689;SDS011;26977;44.830;-0.674;2023-02-15T03:03:44;24.83;;;16.95;;
35689;SDS011;26977;44.830;-0.674;2023-02-15T03:09:27;27.02;;;17.88;;
35689;SDS011;26977;44.830;-0.674;2023-02-15T03:12:07;32.03;;;16.48;;
35689;SDS011;26977;44.830;-0.674;2023-02-15T03:14:38;29.17;;;17.55;;
35689;SDS011;26977;44.830;-0.674;2023-02-15T03:17:07;26.98;;;17.25;;
35689;SDS011;26977;44.830;-0.674;2023-02-15T03:19:37;28.23;;;17.08;;
35689;SDS011;26977;44.830;-0.674;2023-02-15T03:22:13;31.52;;;16.92;;
35689;SDS011;26977;44.830;-0.674;2023-02-15T03:24:48;28.98;;;16.85;;
35689;SDS011;26977;44.830;-0.674;2023-02-15T03:27:41;27.42;;;17.05;;
35689;SDS011;26977;44.830;-0.674;2023-02-15T03:30:24;23.60;;;16.58;;
35689;SDS011;26977;44.830;-0.674;2023-02-15T03:32:51;30.08;;;17.10;;
35689;SDS011;26977;44.830;-0.674;2023-02-15T03:35:22;28.92;;;16.83;;
35689;SDS011;26977;44.830;-0.674;2023-02-15T03:37:57;28.13;;;17.15;;
35689;SDS011;26977;44.830;-0.674;2023-02-15T03:40:29;24.42;;;16.77;;
35689;SDS011;26977;44.830;-0.674;2023-02-15T03:48:50;28.42;;;17.60;;
35689;SDS011;26977;44.830;-0.674;2023-02-15T03:51:19;28.80;;;16.75;;
35689;SDS011;26977;44.830;-0.674;2023-02-15T03:56:39;25.80;;;16.05;;
35689;SDS011;26977;44.830;-0.674;2023-02-15T03:59:06;28.65;;;17.08;;
35689;SDS011;26977;44.830;-0.674;2023-02-15T04:04:34;32.03;;;17.80;;
35689;SDS011;26977;44.830;-0.674;2023-02-15T04:07:02;30.65;;;17.38;;
35689;SDS011;26977;44.830;-0.674;2023-02-15T04:09:30;29.13;;;16.55;;
35689;SDS011;26977;44.830;-0.674;2023-02-15T04:12:25;28.52;;;16.38;;
35689;SDS011;26977;44.830;-0.674;2023-02-15T04:14:50;29.60;;;16.42;;
35689;SDS011;26977;44.830;-0.674;2023-02-15T04:17:37;27.25;;;17.02;;
35689;SDS011;26977;44.830;-0.674;2023-02-15T04:20:15;23.55;;;16.05;;
35689;SDS011;26977;44.830;-0.674;2023-02-15T04:23:09;30.33;;;16.67;;
35689;SDS011;26977;44.830;-0.674;2023-02-15T04:25:54;27.80;;;16.10;;
35689;SDS011;26977;44.830;-0.674;2023-02-15T04:28:20;30.15;;;16.67;;
35689;SDS011;26977;44.830;-0.674;2023-02-15T04:30:46;25.83;;;16.05;;
35689;SDS011;26977;44.830;-0.674;2023-02-15T04:33:12;28.58;;;16.70;;
35689;SDS011;26977;44.830;-0.674;2023-02-15T04:35:38;30.15;;;17.38;;
35689;SDS011;26977;44.830;-0.674;2023-02-15T04:38:03;30.30;;;15.90;;
35689;SDS011;26977;44.830;-0.674;2023-02-15T04:40:29;28.35;;;15.77;;
35689;SDS011;26977;44.830;-0.674;2023-02-15T04:42:57;27.75;;;16.25;;
35689;SDS011;26977;44.830;-0.674;2023-02-15T04:45:23;29.27;;;16.00;;
35689;SDS011;26977;44.830;-0.674;2023-02-15T04:47:49;31.52;;;15.80;;
35689;SDS011;26977;44.830;-0.674;2023-02-15T04:50:26;27.67;;;15.70;;
35689;SDS011;26977;44.830;-0.674;2023-02-15T04:52:52;30.80;;;15.82;;
35689;SDS011;26977;44.830;-0.674;2023-02-15T04:55:20;25.60;;;16.17;;
35689;SDS011;26977;44.830;-0.674;2023-02-15T04:57:46;30.17;;;16.15;;
35689;SDS011;26977;44.830;-0.674;2023-02-15T05:00:12;27.10;;;16.50;;
35689;SDS011;26977;44.830;-0.674;2023-02-15T05:02:38;27.38;;;15.52;;
35689;SDS011;26977;44.830;-0.674;2023-02-15T05:05:18;28.38;;;16.33;;
35689;SDS011;26977;44.830;-0.674;2023-02-15T05:07:44;32.95;;;16.00;;
35689;SDS011;26977;44.830;-0.674;2023-02-15T05:10:09;26.98;;;15.60;;
35689;SDS011;26977;44.830;-0.674;2023-02-15T05:12:38;27.30;;;16.60;;
35689;SDS011;26977;44.830;-0.674;2023-02-15T05:15:05;24.88;;;15.90;;
35689;SDS011;26977;44.830;-0.674;2023-02-15T05:17:31;29.00;;;16.33;;
35689;SDS011;26977;44.830;-0.674;2023-02-15T05:20:00;27.17;;;16.23;;
35689;SDS011;26977;44.830;-0.674;2023-02-15T05:22:26;24.92;;;15.85;;
35689;SDS011;26977;44.830;-0.674;2023-02-15T05:24:55;27.55;;;16.65;;
35689;SDS011;26977;44.830;-0.674;2023-02-15T05:27:39;27.05;;;15.15;;
35689;SDS011;26977;44.830;-0.674;2023-02-15T05:30:24;27.75;;;15.75;;
35689;SDS011;26977;44.830;-0.674;2023-02-15T05:32:50;28.83;;;17.30;;
35689;SDS011;26977;44.830;-0.674;2023-02-15T05:35:16;28.98;;;17.38;;
35689;SDS011;26977;44.830;-0.674;2023-02-15T05:37:43;29.50;;;16.73;;
35689;SDS011;26977;44.830;-0.674;2023-02-15T05:40:09;28.27;;;16.80;;
35689;SDS011;26977;44.830;-0.674;2023-02-15T05:42:36;30.45;;;17.15;;
35689;SDS011;26977;44.830;-0.674;2023-02-15T05:45:01;32.67;;;17.85;;
35689;SDS011;26977;44.830;-0.674;2023-02-15T05:47:28;29.60;;;17.80;;
35689;SDS011;26977;44.830;-0.674;2023-02-15T05:49:54;29.20;;;17.25;;
35689;SDS011;26977;44.830;-0.674;2023-02-15T05:52:20;26.60;;;16.33;;
35689;SDS011;26977;44.830;-0.674;2023-02-15T05:54:56;33.83;;;18.20;;
35689;SDS011;26977;44.830;-0.674;2023-02-15T05:57:23;32.95;;;17.77;;
35689;SDS011;26977;44.830;-0.674;2023-02-15T05:59:48;27.65;;;16.35;;
35689;SDS011;26977;44.830;-0.674;2023-02-15T06:02:16;23.52;;;15.75;;
35689;SDS011;26977;44.830;-0.674;2023-02-15T06:04:57;29.63;;;17.20;;
35689;SDS011;26977;44.830;-0.674;2023-02-15T06:07:25;26.63;;;17.48;;
35689;SDS011;26977;44.830;-0.674;2023-02-15T06:09:50;28.70;;;17.23;;
35689;SDS011;26977;44.830;-0.674;2023-02-15T06:12:16;32.97;;;18.75;;
35689;SDS011;26977;44.830;-0.674;2023-02-15T06:14:43;30.58;;;18.02;;
35689;SDS011;26977;44.830;-0.674;2023-02-15T06:17:12;32.72;;;17.33;;
35689;SDS011;26977;44.830;-0.674;2023-02-15T06:19:38;28.70;;;17.52;;
35689;SDS011;26977;44.830;-0.674;2023-02-15T06:22:14;26.30;;;17.67;;
35689;SDS011;26977;44.830;-0.674;2023-02-15T06:24:40;29.60;;;17.65;;
35689;SDS011;26977;44.830;-0.674;2023-02-15T06:27:08;35.05;;;17.38;;
35689;SDS011;26977;44.830;-0.674;2023-02-15T06:29:53;30.65;;;18.35;;
35689;SDS011;26977;44.830;-0.674;2023-02-15T06:32:18;30.33;;;18.35;;
35689;SDS011;26977;44.830;-0.674;2023-02-15T06:34:44;33.00;;;18.73;;
35689;SDS011;26977;44.830;-0.674;2023-02-15T06:37:10;28.50;;;18.25;;
35689;SDS011;26977;44.830;-0.674;2023-02-15T06:39:35;31.90;;;18.33;;
35689;SDS011;26977;44.830;-0.674;2023-02-15T06:42:01;33.15;;;19.02;;
35689;SDS011;26977;44.830;-0.674;2023-02-15T06:44:27;38.63;;;19.17;;
35689;SDS011;26977;44.830;-0.674;2023-02-15T06:46:52;32.00;;;17.88;;
35689;SDS011;26977;44.830;-0.674;2023-02-15T06:49:18;33.17;;;19.00;;
35689;SDS011;26977;44.830;-0.674;2023-02-15T06:51:43;29.88;;;17.98;;
35689;SDS011;26977;44.830;-0.674;2023-02-15T06:54:09;29.98;;;18.48;;
35689;SDS011;26977;44.830;-0.674;2023-02-15T06:56:38;33.42;;;19.02;;
35689;SDS011;26977;44.830;-0.674;2023-02-15T06:59:04;32.40;;;18.58;;
35689;SDS011;26977;44.830;-0.674;2023-02-15T07:01:29;28.60;;;19.20;;
35689;SDS011;26977;44.830;-0.674;2023-02-15T07:03:55;36.10;;;18.63;;
35689;SDS011;26977;44.830;-0.674;2023-02-15T07:06:20;32.78;;;19.85;;
35689;SDS011;26977;44.830;-0.674;2023-02-15T07:08:46;40.88;;;22.35;;
35689;SDS011;26977;44.830;-0.674;2023-02-15T07:11:12;35.38;;;19.77;;
35689;SDS011;26977;44.830;-0.674;2023-02-15T07:13:56;34.47;;;20.70;;
35689;SDS011;26977;44.830;-0.674;2023-02-15T07:16:22;30.58;;;19.17;;
35689;SDS011;26977;44.830;-0.674;2023-02-15T07:18:47;34.28;;;18.85;;
35689;SDS011;26977;44.830;-0.674;2023-02-15T07:21:13;33.67;;;20.10;;
35689;SDS011;26977;44.830;-0.674;2023-02-15T07:23:39;36.70;;;19.38;;
35689;SDS011;26977;44.830;-0.674;2023-02-15T07:26:05;29.23;;;18.67;;
35689;SDS011;26977;44.830;-0.674;2023-02-15T07:28:32;31.15;;;19.35;;
35689;SDS011;26977;44.830;-0.674;2023-02-15T07:31:00;30.65;;;19.40;;
35689;SDS011;26977;44.830;-0.674;2023-02-15T07:33:27;38.30;;;20.00;;
35689;SDS011;26977;44.830;-0.674;2023-02-15T07:35:58;34.40;;;19.13;;
35689;SDS011;26977;44.830;-0.674;2023-02-15T07:38:26;29.15;;;18.80;;
35689;SDS011;26977;44.830;-0.674;2023-02-15T07:41:00;36.75;;;20.85;;
35689;SDS011;26977;44.830;-0.674;2023-02-15T07:43:27;34.40;;;19.27;;
35689;SDS011;26977;44.830;-0.674;2023-02-15T07:45:54;32.70;;;19.33;;
35689;SDS011;26977;44.830;-0.674;2023-02-15T07:48:23;31.80;;;19.33;;
35689;SDS011;26977;44.830;-0.674;2023-02-15T07:50:49;33.95;;;19.52;;
35689;SDS011;26977;44.830;-0.674;2023-02-15T07:53:15;41.25;;;19.20;;
35689;SDS011;26977;44.830;-0.674;2023-02-15T07:55:40;31.70;;;19.13;;
35689;SDS011;26977;44.830;-0.674;2023-02-15T07:58:06;30.65;;;18.15;;
35689;SDS011;26977;44.830;-0.674;2023-02-15T08:00:32;28.63;;;18.92;;
35689;SDS011;26977;44.830;-0.674;2023-02-15T08:03:17;28.67;;;18.50;;
35689;SDS011;26977;44.830;-0.674;2023-02-15T08:05:44;32.35;;;18.63;;
35689;SDS011;26977;44.830;-0.674;2023-02-15T08:08:10;31.13;;;18.23;;
35689;SDS011;26977;44.830;-0.674;2023-02-15T08:11:02;30.45;;;18.58;;
35689;SDS011;26977;44.830;-0.674;2023-02-15T08:13:56;26.52;;;18.08;;
35689;SDS011;26977;44.830;-0.674;2023-02-15T08:19:04;33.45;;;18.80;;
35689;SDS011;26977;44.830;-0.674;2023-02-15T08:21:35;28.27;;;17.73;;
35689;SDS011;26977;44.830;-0.674;2023-02-15T08:24:03;32.10;;;17.73;;
35689;SDS011;26977;44.830;-0.674;2023-02-15T08:26:30;33.40;;;18.08;;
35689;SDS011;26977;44.830;-0.674;2023-02-15T08:28:57;29.48;;;17.13;;
35689;SDS011;26977;44.830;-0.674;2023-02-15T08:31:23;30.05;;;18.13;;
35689;SDS011;26977;44.830;-0.674;2023-02-15T08:33:50;31.23;;;18.23;;
35689;SDS011;26977;44.830;-0.674;2023-02-15T08:36:19;44.53;;;18.20;;
35689;SDS011;26977;44.830;-0.674;2023-02-15T08:38:46;31.02;;;17.23;;
35689;SDS011;26977;44.830;-0.674;2023-02-15T08:43:42;25.23;;;16.98;;
35689;SDS011;26977;44.830;-0.674;2023-02-15T08:46:09;26.98;;;17.17;;
35689;SDS011;26977;44.830;-0.674;2023-02-15T08:48:36;29.52;;;16.25;;
35689;SDS011;26977;44.830;-0.674;2023-02-15T08:51:06;29.05;;;17.58;;
35689;SDS011;26977;44.830;-0.674;2023-02-15T08:53:35;26.60;;;16.92;;
35689;SDS011;26977;44.830;-0.674;2023-02-15T08:56:02;25.95;;;16.77;;
35689;SDS011;26977;44.830;-0.674;2023-02-15T08:58:28;30.23;;;17.92;;
35689;SDS011;26977;44.830;-0.674;2023-02-15T09:00:55;26.23;;;16.52;;
35689;SDS011;26977;44.830;-0.674;2023-02-15T09:03:22;25.23;;;15.77;;
35689;SDS011;26977;44.830;-0.674;2023-02-15T09:05:48;27.75;;;16.80;;
35689;SDS011;26977;44.830;-0.674;2023-02-15T09:08:14;27.40;;;16.10;;
35689;SDS011;26977;44.830;-0.674;2023-02-15T09:10:40;24.15;;;15.35;;
35689;SDS011;26977;44.830;-0.674;2023-02-15T09:13:06;25.92;;;16.55;;
35689;SDS011;26977;44.830;-0.674;2023-02-15T09:15:31;32.13;;;15.27;;
35689;SDS011;26977;44.830;-0.674;2023-02-15T09:17:57;27.23;;;15.98;;
35689;SDS011;26977;44.830;-0.674;2023-02-15T09:20:26;23.90;;;15.07;;
35689;SDS011;26977;44.830;-0.674;2023-02-15T09:22:53;22.92;;;14.57;;
35689;SDS011;26977;44.830;-0.674;2023-02-15T09:25:19;34.97;;;16.02;;
35689;SDS011;26977;44.830;-0.674;2023-02-15T09:27:45;25.58;;;14.38;;
35689;SDS011;26977;44.830;-0.674;2023-02-15T09:30:10;21.88;;;14.88;;
35689;SDS011;26977;44.830;-0.674;2023-02-15T09:32:37;22.05;;;13.75;;
35689;SDS011;26977;44.830;-0.674;2023-02-15T09:35:03;22.70;;;14.48;;
35689;SDS011;26977;44.830;-0.674;2023-02-15T09:37:29;26.05;;;13.88;;
35689;SDS011;26977;44.830;-0.674;2023-02-15T09:39:56;22.83;;;13.02;;
35689;SDS011;26977;44.830;-0.674;2023-02-15T09:42:35;22.27;;;13.75;;
35689;SDS011;26977;44.830;-0.674;2023-02-15T09:50:36;23.88;;;12.93;;
35689;SDS011;26977;44.830;-0.674;2023-02-15T09:53:29;21.48;;;13.10;;
35689;SDS011;26977;44.830;-0.674;2023-02-15T10:12:43;18.27;;;11.60;;
35689;SDS011;26977;44.830;-0.674;2023-02-15T10:15:28;21.17;;;11.82;;
35689;SDS011;26977;44.830;-0.674;2023-02-15T10:23:59;21.33;;;11.30;;
35689;SDS011;26977;44.830;-0.674;2023-02-15T10:26:45;14.82;;;10.30;;
35689;SDS011;26977;44.830;-0.674;2023-02-15T10:51:05;15.77;;;10.35;;
35689;SDS011;26977;44.830;-0.674;2023-02-15T10:58:51;13.98;;;9.43;;
35689;SDS011;26977;44.830;-0.674;2023-02-15T11:07:25;18.20;;;9.97;;
35689;SDS011;26977;44.830;-0.674;2023-02-15T11:12:46;13.82;;;9.43;;
35689;SDS011;26977;44.830;-0.674;2023-02-15T11:15:24;17.80;;;9.13;;
35689;SDS011;26977;44.830;-0.674;2023-02-15T11:17:56;23.70;;;10.45;;
35689;SDS011;26977;44.830;-0.674;2023-02-15T11:20:45;17.48;;;10.02;;
35689;SDS011;26977;44.830;-0.674;2023-02-15T11:23:24;15.30;;;8.73;;
35689;SDS011;26977;44.830;-0.674;2023-02-15T11:31:57;15.57;;;8.88;;
35689;SDS011;26977;44.830;-0.674;2023-02-15T11:34:31;13.90;;;8.50;;
35689;SDS011;26977;44.830;-0.674;2023-02-15T11:37:13;17.05;;;8.13;;
35689;SDS011;26977;44.830;-0.674;2023-02-15T11:39:44;16.23;;;7.60;;
35689;SDS011;26977;44.830;-0.674;2023-02-15T11:42:17;15.75;;;7.95;;
35689;SDS011;26977;44.830;-0.674;2023-02-15T11:45:02;15.07;;;7.70;;
35689;SDS011;26977;44.830;-0.674;2023-02-15T11:47:42;14.57;;;8.07;;
35689;SDS011;26977;44.830;-0.674;2023-02-15T11:50:15;9.32;;;6.47;;
35689;SDS011;26977;44.830;-0.674;2023-02-15T11:52:47;13.10;;;6.82;;
35689;SDS011;26977;44.830;-0.674;2023-02-15T11:55:14;12.88;;;7.40;;
35689;SDS011;26977;44.830;-0.674;2023-02-15T11:57:46;15.43;;;8.02;;
35689;SDS011;26977;44.830;-0.674;2023-02-15T12:03:00;13.95;;;6.80;;
35689;SDS011;26977;44.830;-0.674;2023-02-15T12:05:49;13.38;;;7.32;;
35689;SDS011;26977;44.830;-0.674;2023-02-15T12:11:49;12.00;;;6.63;;
35689;SDS011;26977;44.830;-0.674;2023-02-15T12:14:14;11.23;;;6.95;;
35689;SDS011;26977;44.830;-0.674;2023-02-15T12:16:53;13.35;;;7.00;;
35689;SDS011;26977;44.830;-0.674;2023-02-15T12:21:54;11.10;;;6.28;;
35689;SDS011;26977;44.830;-0.674;2023-02-15T12:24:23;11.95;;;6.22;;
35689;SDS011;26977;44.830;-0.674;2023-02-15T12:32:53;9.20;;;5.70;;
35689;SDS011;26977;44.830;-0.674;2023-02-15T12:35:31;9.77;;;5.95;;
35689;SDS011;26977;44.830;-0.674;2023-02-15T12:38:02;10.57;;;5.35;;
35689;SDS011;26977;44.830;-0.674;2023-02-15T12:40:31;9.85;;;5.88;;
35689;SDS011;26977;44.830;-0.674;2023-02-15T12:42:59;9.18;;;5.35;;
35689;SDS011;26977;44.830;-0.674;2023-02-15T12:45:31;9.27;;;5.20;;
35689;SDS011;26977;44.830;-0.674;2023-02-15T12:51:16;8.18;;;4.00;;
35689;SDS011;26977;44.830;-0.674;2023-02-15T12:53:41;6.22;;;4.40;;
35689;SDS011;26977;44.830;-0.674;2023-02-15T12:56:08;10.13;;;4.60;;
35689;SDS011;26977;44.830;-0.674;2023-02-15T12:58:38;9.02;;;4.70;;
35689;SDS011;26977;44.830;-0.674;2023-02-15T13:01:18;8.02;;;4.25;;
35689;SDS011;26977;44.830;-0.674;2023-02-15T13:06:26;5.78;;;3.30;;
35689;SDS011;26977;44.830;-0.674;2023-02-15T13:08:54;10.68;;;3.40;;
35689;SDS011;26977;44.830;-0.674;2023-02-15T13:11:30;7.40;;;3.78;;
35689;SDS011;26977;44.830;-0.674;2023-02-15T13:14:03;4.70;;;2.47;;
35689;SDS011;26977;44.830;-0.674;2023-02-15T13:16:48;9.25;;;2.88;;
35689;SDS011;26977;44.830;-0.674;2023-02-15T13:19:26;4.03;;;2.30;;
35689;SDS011;26977;44.830;-0.674;2023-02-15T13:22:08;6.00;;;2.38;;
35689;SDS011;26977;44.830;-0.674;2023-02-15T13:24:57;5.90;;;2.63;;
35689;SDS011;26977;44.830;-0.674;2023-02-15T13:27:36;5.18;;;1.88;;
35689;SDS011;26977;44.830;-0.674;2023-02-15T13:30:16;4.60;;;1.90;;
35689;SDS011;26977;44.830;-0.674;2023-02-15T13:32:48;4.38;;;2.10;;
35689;SDS011;26977;44.830;-0.674;2023-02-15T13:35:17;4.68;;;1.80;;
35689;SDS011;26977;44.830;-0.674;2023-02-15T13:38:05;5.32;;;2.30;;
35689;SDS011;26977;44.830;-0.674;2023-02-15T13:41:04;11.18;;;6.57;;
35689;SDS011;26977;44.830;-0.674;2023-02-15T13:43:53;5.28;;;2.10;;
35689;SDS011;26977;44.830;-0.674;2023-02-15T13:51:56;4.45;;;2.30;;
35689;SDS011;26977;44.830;-0.674;2023-02-15T14:04:01;4.28;;;2.38;;
35689;SDS011;26977;44.830;-0.674;2023-02-15T14:09:36;4.32;;;2.13;;
35689;SDS011;26977;44.830;-0.674;2023-02-15T14:20:24;4.22;;;1.98;;
35689;SDS011;26977;44.830;-0.674;2023-02-15T14:25:27;5.93;;;2.70;;
35689;SDS011;26977;44.830;-0.674;2023-02-15T14:30:37;8.75;;;2.72;;
35689;SDS011;26977;44.830;-0.674;2023-02-15T14:33:08;4.50;;;2.22;;
35689;SDS011;26977;44.830;-0.674;2023-02-15T14:35:53;4.25;;;2.20;;
35689;SDS011;26977;44.830;-0.674;2023-02-15T14:41:04;3.40;;;2.10;;
35689;SDS011;26977;44.830;-0.674;2023-02-15T14:48:50;10.15;;;4.80;;
35689;SDS011;26977;44.830;-0.674;2023-02-15T15:02:10;5.70;;;1.85;;
35689;SDS011;26977;44.830;-0.674;2023-02-15T15:18:05;6.47;;;1.90;;
35689;SDS011;26977;44.830;-0.674;2023-02-15T15:20:38;8.23;;;2.13;;
35689;SDS011;26977;44.830;-0.674;2023-02-15T15:25:42;5.50;;;1.88;;
35689;SDS011;26977;44.830;-0.674;2023-02-15T15:28:52;5.05;;;1.92;;
35689;SDS011;26977;44.830;-0.674;2023-02-15T15:31:18;7.60;;;1.95;;
35689;SDS011;26977;44.830;-0.674;2023-02-15T15:34:19;7.03;;;1.90;;
35689;SDS011;26977;44.830;-0.674;2023-02-15T15:51:06;7.88;;;2.25;;
35689;SDS011;26977;44.830;-0.674;2023-02-15T15:53:37;4.32;;;1.95;;
35689;SDS011;26977;44.830;-0.674;2023-02-15T15:56:08;6.77;;;2.10;;
35689;SDS011;26977;44.830;-0.674;2023-02-15T15:58:41;4.97;;;1.92;;
35689;SDS011;26977;44.830;-0.674;2023-02-15T16:01:10;8.45;;;2.28;;
35689;SDS011;26977;44.830;-0.674;2023-02-15T16:03:47;4.93;;;2.17;;
35689;SDS011;26977;44.830;-0.674;2023-02-15T16:06:26;9.02;;;2.63;;
35689;SDS011;26977;44.830;-0.674;2023-02-15T16:08:53;7.15;;;2.20;;
35689;SDS011;26977;44.830;-0.674;2023-02-15T16:11:21;3.72;;;1.73;;
35689;SDS011;26977;44.830;-0.674;2023-02-15T16:13:53;8.38;;;1.90;;
35689;SDS011;26977;44.830;-0.674;2023-02-15T16:16:23;6.15;;;2.15;;
35689;SDS011;26977;44.830;-0.674;2023-02-15T16:18:53;3.88;;;1.80;;
35689;SDS011;26977;44.830;-0.674;2023-02-15T16:21:28;5.60;;;1.88;;
35689;SDS011;26977;44.830;-0.674;2023-02-15T16:26:49;5.80;;;1.95;;
35689;SDS011;26977;44.830;-0.674;2023-02-15T16:29:44;8.05;;;1.90;;
35689;SDS011;26977;44.830;-0.674;2023-02-15T16:32:18;7.88;;;2.00;;
35689;SDS011;26977;44.830;-0.674;2023-02-15T16:34:59;8.20;;;1.83;;
35689;SDS011;26977;44.830;-0.674;2023-02-15T16:37:36;8.20;;;2.10;;
35689;SDS011;26977;44.830;-0.674;2023-02-15T16:40:01;7.35;;;3.00;;
35689;SDS011;26977;44.830;-0.674;2023-02-15T16:42:27;4.38;;;2.03;;
35689;SDS011;26977;44.830;-0.674;2023-02-15T16:45:05;7.13;;;2.20;;
35689;SDS011;26977;44.830;-0.674;2023-02-15T16:47:35;5.20;;;2.13;;
35689;SDS011;26977;44.830;-0.674;2023-02-15T16:50:06;8.40;;;2.50;;
35689;SDS011;26977;44.830;-0.674;2023-02-15T16:52:41;7.72;;;2.33;;
35689;SDS011;26977;44.830;-0.674;2023-02-15T16:55:17;5.00;;;1.92;;
35689;SDS011;26977;44.830;-0.674;2023-02-15T16:57:47;4.97;;;2.13;;
35689;SDS011;26977;44.830;-0.674;2023-02-15T17:00:20;5.00;;;2.20;;
35689;SDS011;26977;44.830;-0.674;2023-02-15T17:02:53;5.90;;;2.00;;
35689;SDS011;26977;44.830;-0.674;2023-02-15T17:05:23;4.88;;;2.55;;
35689;SDS011;26977;44.830;-0.674;2023-02-15T17:08:05;6.88;;;2.78;;
35689;SDS011;26977;44.830;-0.674;2023-02-15T17:10:40;6.13;;;2.15;;
35689;SDS011;26977;44.830;-0.674;2023-02-15T17:13:27;9.35;;;2.42;;
35689;SDS011;26977;44.830;-0.674;2023-02-15T17:21:17;7.07;;;2.58;;
35689;SDS011;26977;44.830;-0.674;2023-02-15T17:23:46;12.07;;;2.95;;
35689;SDS011;26977;44.830;-0.674;2023-02-15T17:28:45;8.15;;;3.20;;
35689;SDS011;26977;44.830;-0.674;2023-02-15T17:31:25;6.70;;;2.67;;
35689;SDS011;26977;44.830;-0.674;2023-02-15T17:33:56;8.73;;;2.70;;
35689;SDS011;26977;44.830;-0.674;2023-02-15T17:36:32;4.78;;;2.90;;
35689;SDS011;26977;44.830;-0.674;2023-02-15T17:41:33;10.45;;;3.30;;
35689;SDS011;26977;44.830;-0.674;2023-02-15T17:44:09;9.68;;;2.88;;
35689;SDS011;26977;44.830;-0.674;2023-02-15T17:46:39;9.18;;;2.67;;
35689;SDS011;26977;44.830;-0.674;2023-02-15T17:49:05;8.27;;;3.50;;
35689;SDS011;26977;44.830;-0.674;2023-02-15T17:51:32;10.25;;;3.28;;
35689;SDS011;26977;44.830;-0.674;2023-02-15T17:54:00;13.38;;;3.50;;
35689;SDS011;26977;44.830;-0.674;2023-02-15T17:56:45;10.90;;;3.60;;
35689;SDS011;26977;44.830;-0.674;2023-02-15T17:59:11;7.57;;;3.10;;
35689;SDS011;26977;44.830;-0.674;2023-02-15T18:01:40;14.00;;;3.97;;
35689;SDS011;26977;44.830;-0.674;2023-02-15T18:04:29;7.63;;;3.13;;
35689;SDS011;26977;44.830;-0.674;2023-02-15T18:07:15;9.52;;;3.53;;
35689;SDS011;26977;44.830;-0.674;2023-02-15T18:10:02;14.43;;;3.63;;
35689;SDS011;26977;44.830;-0.674;2023-02-15T18:12:55;6.88;;;3.38;;
35689;SDS011;26977;44.830;-0.674;2023-02-15T18:15:23;9.85;;;3.40;;
35689;SDS011;26977;44.830;-0.674;2023-02-15T18:17:51;8.13;;;3.78;;
35689;SDS011;26977;44.830;-0.674;2023-02-15T18:20:32;6.78;;;3.75;;
35689;SDS011;26977;44.830;-0.674;2023-02-15T18:23:00;10.43;;;4.20;;
35689;SDS011;26977;44.830;-0.674;2023-02-15T18:25:26;15.02;;;4.60;;
35689;SDS011;26977;44.830;-0.674;2023-02-15T18:27:52;16.67;;;4.63;;
35689;SDS011;26977;44.830;-0.674;2023-02-15T18:30:19;13.88;;;4.68;;
35689;SDS011;26977;44.830;-0.674;2023-02-15T18:32:47;9.55;;;4.35;;
35689;SDS011;26977;44.830;-0.674;2023-02-15T18:35:19;7.50;;;3.92;;
35689;SDS011;26977;44.830;-0.674;2023-02-15T18:37:57;14.15;;;4.35;;
35689;SDS011;26977;44.830;-0.674;2023-02-15T18:40:25;17.27;;;4.10;;